Time;durP1;ratioP1;P1;durP2;ratioP2;P2;SDS_P1;SDS_P2;PMS_P1;PMS_P2;Temp;Humidity;BMP_temperature;BMP_pressure;BME280_temperature;BME280_humidity;BME280_pressure;Samples;Min_cycle;Max_cycle;Signal;HPM_P1;HPM_P2
2023/04/11 00:01:31;;;;;;;11.60;6.78;;;11.30;99.90;;;;;;5060311;28;20464;-81
2023/04/11 00:03:58;;;;;;;12.48;7.70;;;11.30;99.90;;;;;;5059660;28;20064;-81
2023/04/11 00:06:24;;;;;;;14.63;7.93;;;11.20;99.90;;;;;;5062418;28;20036;-80
2023/04/11 00:08:51;;;;;;;14.07;8.30;;;11.10;99.90;;;;;;5059064;28;20481;-80
2023/04/11 00:11:17;;;;;;;11.57;7.93;;;11.10;99.90;;;;;;5058525;28;20070;-80
2023/04/11 00:13:47;;;;;;;17.25;8.65;;;11.00;99.90;;;;;;5056154;28;20533;-80
2023/04/11 00:16:13;;;;;;;11.35;8.02;;;11.00;99.90;;;;;;5057811;28;20116;-80
2023/04/11 00:18:43;;;;;;;12.60;8.30;;;10.90;99.90;;;;;;5061405;28;20052;-81
2023/04/11 00:21:09;;;;;;;9.63;7.53;;;10.80;99.90;;;;;;5062237;28;20097;-80
2023/04/11 00:23:35;;;;;;;12.77;9.07;;;10.70;99.90;;;;;;5064892;28;20440;-80
2023/04/11 00:26:01;;;;;;;10.80;8.20;;;10.70;99.90;;;;;;5062901;28;20078;-80
2023/04/11 00:28:27;;;;;;;12.02;8.35;;;10.70;99.90;;;;;;5063861;28;20109;-79
2023/04/11 00:30:53;;;;;;;14.73;8.88;;;10.60;99.90;;;;;;5060712;28;20104;-80
2023/04/11 00:33:18;;;;;;;11.32;8.32;;;10.50;99.90;;;;;;5059442;28;20024;-79
2023/04/11 00:35:44;;;;;;;9.85;7.70;;;10.50;99.90;;;;;;5061793;28;20025;-80
2023/04/11 00:38:09;;;;;;;13.70;8.20;;;10.50;99.90;;;;;;5062587;28;20028;-81
2023/04/11 00:40:35;;;;;;;13.77;9.02;;;10.50;99.90;;;;;;5057506;28;20044;-80
2023/04/11 00:43:02;;;;;;;11.40;8.75;;;10.40;99.90;;;;;;5063585;28;20028;-81
2023/04/11 00:45:28;;;;;;;9.80;7.88;;;10.40;99.90;;;;;;5061262;28;20488;-80
2023/04/11 00:47:53;;;;;;;15.63;8.70;;;10.40;99.90;;;;;;5064647;28;20155;-80
2023/04/11 00:50:21;;;;;;;13.15;9.05;;;10.40;99.90;;;;;;5061123;28;20032;-80
2023/04/11 00:52:48;;;;;;;12.35;8.70;;;10.30;99.90;;;;;;5061763;28;20031;-80
2023/04/11 00:55:15;;;;;;;14.48;8.88;;;10.30;99.90;;;;;;5059921;28;20028;-80
2023/04/11 00:57:41;;;;;;;13.27;8.68;;;10.30;99.90;;;;;;5065984;28;20048;-80
2023/04/11 01:00:10;;;;;;;10.57;7.93;;;10.30;99.90;;;;;;5063923;28;20112;-80
2023/04/11 01:02:37;;;;;;;11.10;8.75;;;10.30;99.90;;;;;;5061690;28;20078;-80
2023/04/11 01:05:04;;;;;;;13.52;9.48;;;10.20;99.90;;;;;;5060805;28;20036;-81
2023/04/11 01:07:31;;;;;;;12.48;9.27;;;10.20;99.90;;;;;;5063884;28;20059;-80
2023/04/11 01:09:59;;;;;;;13.02;9.68;;;10.10;99.90;;;;;;5054204;28;20219;-81
2023/04/11 01:12:25;;;;;;;13.45;8.82;;;10.10;99.90;;;;;;5061390;28;20048;-81
2023/04/11 01:14:50;;;;;;;13.68;9.00;;;10.00;99.90;;;;;;5054663;28;20036;-80
2023/04/11 01:17:16;;;;;;;10.90;8.85;;;10.00;99.90;;;;;;5054499;28;20044;-80
2023/04/11 01:19:44;;;;;;;13.93;9.93;;;10.00;99.90;;;;;;5058031;28;20033;-81
2023/04/11 01:22:13;;;;;;;11.65;9.07;;;10.00;99.90;;;;;;5055846;28;20417;-80
2023/04/11 01:24:39;;;;;;;12.70;8.48;;;10.00;99.90;;;;;;5062934;28;20782;-80
2023/04/11 01:27:05;;;;;;;12.63;8.98;;;9.90;99.90;;;;;;5066969;28;20033;-80
2023/04/11 01:29:31;;;;;;;14.27;10.05;;;9.90;99.90;;;;;;5067396;28;20307;-80
2023/04/11 01:31:57;;;;;;;17.63;10.15;;;9.90;99.90;;;;;;5066202;28;20044;-81
2023/04/11 01:34:27;;;;;;;14.40;9.63;;;9.80;99.90;;;;;;5066504;28;20052;-81
2023/04/11 01:36:53;;;;;;;12.98;9.18;;;9.80;99.90;;;;;;5067498;28;20028;-80
2023/04/11 01:39:19;;;;;;;12.75;9.63;;;9.80;99.90;;;;;;5068863;28;20382;-80
2023/04/11 01:41:45;;;;;;;15.02;10.20;;;9.80;99.90;;;;;;5068174;28;20045;-80
2023/04/11 01:44:12;;;;;;;14.13;9.68;;;9.90;99.90;;;;;;5064463;28;20470;-81
2023/04/11 01:46:37;;;;;;;16.00;10.57;;;9.80;99.90;;;;;;5061488;28;20041;-81
2023/04/11 01:49:03;;;;;;;14.48;11.15;;;9.70;99.90;;;;;;5066792;28;20028;-80
2023/04/11 01:51:29;;;;;;;11.77;9.48;;;9.80;99.90;;;;;;5058262;28;20029;-80
2023/04/11 01:53:56;;;;;;;12.93;8.73;;;9.80;99.90;;;;;;5064786;28;20031;-80
2023/04/11 01:56:22;;;;;;;16.13;10.43;;;9.80;99.90;;;;;;5058823;28;20032;-81
2023/04/11 01:58:47;;;;;;;16.15;8.70;;;9.90;99.90;;;;;;5067730;28;20552;-80
2023/04/11 02:01:16;;;;;;;12.77;9.35;;;9.90;99.90;;;;;;5063216;28;20036;-83
2023/04/11 02:03:42;;;;;;;12.68;8.57;;;9.80;99.90;;;;;;5060933;28;20041;-80
2023/04/11 02:06:07;;;;;;;12.13;8.95;;;9.80;99.90;;;;;;5061005;28;20086;-80
2023/04/11 02:08:33;;;;;;;14.18;9.45;;;9.90;99.90;;;;;;5063343;28;20017;-80
2023/04/11 02:10:59;;;;;;;15.57;9.07;;;9.90;99.90;;;;;;5064757;28;20035;-80
2023/04/11 02:13:24;;;;;;;11.43;8.48;;;9.90;99.90;;;;;;5067171;28;20035;-79
2023/04/11 02:15:50;;;;;;;11.45;7.88;;;9.90;99.90;;;;;;5065940;28;20240;-80
2023/04/11 02:18:15;;;;;;;13.50;9.07;;;9.90;99.90;;;;;;5065965;28;21357;-80
2023/04/11 02:20:41;;;;;;;11.88;8.20;;;9.90;99.90;;;;;;5063584;28;20020;-80
2023/04/11 02:23:07;;;;;;;12.93;8.45;;;10.00;99.90;;;;;;5063759;28;20021;-81
2023/04/11 02:25:32;;;;;;;11.25;7.70;;;9.90;99.90;;;;;;5060744;28;20067;-80
2023/04/11 02:27:58;;;;;;;12.02;8.25;;;9.90;99.90;;;;;;5064959;28;20489;-81
2023/04/11 02:30:24;;;;;;;10.02;7.68;;;9.90;99.90;;;;;;5065881;28;20427;-80
2023/04/11 02:32:50;;;;;;;15.43;8.38;;;9.90;99.90;;;;;;5064994;28;20107;-80
2023/04/11 02:35:18;;;;;;;13.85;8.52;;;9.90;99.90;;;;;;5062858;28;20051;-80
2023/04/11 02:37:44;;;;;;;11.15;8.02;;;9.90;99.90;;;;;;5062355;28;20028;-81
2023/04/11 02:40:10;;;;;;;15.82;7.88;;;9.90;99.90;;;;;;5064187;28;20063;-80
2023/04/11 02:42:36;;;;;;;15.75;8.57;;;9.90;99.90;;;;;;5066385;28;20024;-80
2023/04/11 02:45:01;;;;;;;11.55;7.70;;;9.80;99.90;;;;;;5065170;28;20535;-80
2023/04/11 02:47:27;;;;;;;10.85;7.55;;;9.80;99.90;;;;;;5066017;28;20035;-80
2023/04/11 02:49:52;;;;;;;13.70;8.07;;;9.80;99.90;;;;;;5064021;28;20395;-80
2023/04/11 02:52:18;;;;;;;13.02;8.10;;;9.80;99.90;;;;;;5062548;28;20035;-81
2023/04/11 02:54:44;;;;;;;13.30;6.80;;;9.80;99.90;;;;;;5056477;28;20508;-80
2023/04/11 02:57:11;;;;;;;10.48;6.85;;;9.80;99.90;;;;;;5063038;28;20059;-80
2023/04/11 02:59:37;;;;;;;14.60;7.85;;;9.70;99.90;;;;;;5066241;28;20362;-80
2023/04/11 03:02:04;;;;;;;12.07;7.57;;;9.80;99.90;;;;;;5063995;28;20039;-81
2023/04/11 03:04:29;;;;;;;12.13;7.78;;;9.70;99.90;;;;;;5061006;28;20029;-80
2023/04/11 03:06:55;;;;;;;12.68;7.93;;;9.70;99.90;;;;;;5066704;28;20095;-80
2023/04/11 03:09:22;;;;;;;10.90;6.55;;;9.70;99.90;;;;;;5062334;28;20012;-81
2023/04/11 03:11:48;;;;;;;7.82;5.57;;;9.70;99.90;;;;;;5058624;28;20116;-81
2023/04/11 03:14:14;;;;;;;9.77;5.40;;;9.70;99.90;;;;;;5063914;28;20059;-80
2023/04/11 03:16:39;;;;;;;8.45;5.65;;;9.70;99.90;;;;;;5064040;28;20024;-80
2023/04/11 03:19:05;;;;;;;7.25;4.53;;;9.70;99.90;;;;;;5058619;28;20028;-79
2023/04/11 03:21:31;;;;;;;7.80;5.32;;;9.60;99.90;;;;;;5065188;28;20029;-80
2023/04/11 03:23:59;;;;;;;8.40;5.15;;;9.60;99.90;;;;;;5065340;28;20032;-82
2023/04/11 03:26:26;;;;;;;7.93;5.05;;;9.60;99.90;;;;;;5051699;28;20052;-79
2023/04/11 03:28:53;;;;;;;7.80;5.75;;;9.60;99.90;;;;;;5061915;28;20040;-80
2023/04/11 03:31:19;;;;;;;7.82;4.90;;;9.60;99.90;;;;;;5061938;28;20292;-80
2023/04/11 03:33:45;;;;;;;7.57;5.07;;;9.60;99.90;;;;;;5060707;28;20165;-80
2023/04/11 03:36:11;;;;;;;4.75;3.72;;;9.70;99.90;;;;;;5063005;28;20020;-80
2023/04/11 03:38:40;;;;;;;6.03;4.45;;;9.60;99.90;;;;;;5063014;28;20025;-81
2023/04/11 03:41:05;;;;;;;5.25;3.58;;;9.60;99.90;;;;;;5062136;28;20064;-81
2023/04/11 03:43:31;;;;;;;8.88;3.83;;;9.60;99.90;;;;;;5057095;28;20021;-80
2023/04/11 03:45:57;;;;;;;5.68;3.40;;;9.60;99.90;;;;;;5053457;28;20350;-80
2023/04/11 03:48:28;;;;;;;8.73;3.65;;;9.70;99.90;;;;;;5063129;28;20033;-79
2023/04/11 03:50:54;;;;;;;10.50;3.90;;;9.60;99.90;;;;;;5061785;28;20481;-81
2023/04/11 03:53:20;;;;;;;8.07;4.65;;;9.60;99.90;;;;;;5059807;28;20039;-80
2023/04/11 03:55:47;;;;;;;6.25;2.80;;;9.60;99.90;;;;;;5057525;28;20297;-79
2023/04/11 03:58:14;;;;;;;3.78;3.17;;;9.60;99.90;;;;;;5061408;28;20028;-80
2023/04/11 04:00:40;;;;;;;4.47;2.67;;;9.60;99.90;;;;;;5056144;28;20090;-79
2023/04/11 04:03:06;;;;;;;4.85;3.28;;;9.60;99.90;;;;;;5060869;28;20028;-80
2023/04/11 04:05:33;;;;;;;4.55;2.88;;;9.60;99.90;;;;;;5053657;28;20116;-82
2023/04/11 04:07:58;;;;;;;7.25;3.65;;;9.60;99.90;;;;;;5055639;28;20187;-79
2023/04/11 04:10:24;;;;;;;8.10;3.00;;;9.60;99.90;;;;;;5053511;28;20448;-80
2023/04/11 04:12:51;;;;;;;4.45;2.70;;;9.60;99.90;;;;;;5057464;28;20024;-79
2023/04/11 04:15:17;;;;;;;4.25;2.75;;;9.50;99.90;;;;;;5060782;28;20424;-80
2023/04/11 04:17:43;;;;;;;6.15;3.08;;;9.50;99.90;;;;;;5058261;28;20035;-81
2023/04/11 04:20:09;;;;;;;10.93;3.40;;;9.50;99.90;;;;;;5059564;28;20111;-81
2023/04/11 04:22:36;;;;;;;3.88;2.67;;;9.40;99.90;;;;;;5062184;28;20067;-83
2023/04/11 04:25:05;;;;;;;5.07;2.70;;;9.30;99.90;;;;;;5060561;28;20144;-81
2023/04/11 04:27:31;;;;;;;5.75;2.92;;;9.30;99.90;;;;;;5053192;28;20123;-81
2023/04/11 04:29:58;;;;;;;4.90;3.35;;;9.30;99.90;;;;;;5051128;28;20145;-80
2023/04/11 04:32:23;;;;;;;6.88;3.08;;;9.30;99.90;;;;;;5060020;28;20025;-81
2023/04/11 04:34:54;;;;;;;5.38;2.63;;;9.30;99.90;;;;;;5060959;28;20031;-80
2023/04/11 04:37:22;;;;;;;8.18;2.95;;;9.30;99.90;;;;;;5056713;28;20041;-80
2023/04/11 04:39:55;;;;;;;3.22;2.08;;;9.30;99.90;;;;;;5060245;28;20025;-81
2023/04/11 04:42:21;;;;;;;7.65;2.45;;;9.30;99.90;;;;;;5057342;28;20051;-81
2023/04/11 04:44:50;;;;;;;4.60;2.58;;;9.30;99.90;;;;;;5063422;28;20581;-81
2023/04/11 04:47:16;;;;;;;4.95;2.53;;;9.40;99.90;;;;;;5058421;28;20040;-80
2023/04/11 04:49:43;;;;;;;6.35;2.30;;;9.40;99.90;;;;;;5053732;28;20503;-80
2023/04/11 04:52:09;;;;;;;5.15;2.92;;;9.40;99.90;;;;;;5055207;28;20485;-81
2023/04/11 04:54:35;;;;;;;4.63;2.78;;;9.40;99.90;;;;;;5055428;28;20024;-81
2023/04/11 04:57:01;;;;;;;4.80;2.25;;;9.40;99.90;;;;;;5061257;28;20025;-81
2023/04/11 04:59:27;;;;;;;7.20;2.63;;;9.30;99.90;;;;;;5066053;28;20476;-81
2023/04/11 05:01:53;;;;;;;4.03;2.53;;;9.40;99.90;;;;;;5062675;28;20035;-81
2023/04/11 05:04:19;;;;;;;5.88;2.53;;;9.30;99.90;;;;;;5055981;28;20029;-81
2023/04/11 05:06:45;;;;;;;4.82;2.15;;;9.40;99.90;;;;;;5057286;28;20051;-81
2023/04/11 05:09:10;;;;;;;12.88;4.75;;;9.30;99.90;;;;;;5060152;28;20017;-81
2023/04/11 05:11:36;;;;;;;5.72;2.78;;;9.40;99.90;;;;;;5059677;28;20028;-81
2023/04/11 05:14:02;;;;;;;9.27;3.47;;;9.40;99.90;;;;;;5055958;28;20024;-84
2023/04/11 05:16:27;;;;;;;4.60;1.95;;;9.30;99.90;;;;;;5065650;28;20043;-82
2023/04/11 05:18:53;;;;;;;7.40;2.63;;;9.30;99.90;;;;;;5065336;28;20047;-81
2023/04/11 05:21:18;;;;;;;8.90;2.75;;;9.30;99.90;;;;;;5064239;28;20141;-81
2023/04/11 05:23:44;;;;;;;7.75;2.00;;;9.30;99.90;;;;;;5060671;28;20024;-80
2023/04/11 05:26:11;;;;;;;9.43;2.90;;;9.30;99.90;;;;;;5063351;28;20052;-80
2023/04/11 05:28:37;;;;;;;6.35;2.25;;;9.30;99.90;;;;;;5065287;28;20094;-81
2023/04/11 05:31:03;;;;;;;7.78;2.05;;;9.30;99.90;;;;;;5066880;28;20097;-81
2023/04/11 05:33:29;;;;;;;10.57;2.72;;;9.30;99.90;;;;;;5066942;28;20166;-81
2023/04/11 05:35:55;;;;;;;9.60;3.20;;;9.30;99.90;;;;;;5060935;28;20036;-81
2023/04/11 05:38:20;;;;;;;7.57;2.30;;;9.40;99.90;;;;;;5061014;28;20020;-80
2023/04/11 05:40:46;;;;;;;8.95;2.20;;;9.30;99.90;;;;;;5065193;28;20048;-81
2023/04/11 05:43:13;;;;;;;9.48;3.85;;;9.40;99.90;;;;;;5068344;28;20037;-83
2023/04/11 05:45:46;;;;;;;8.63;2.20;;;9.40;99.90;;;;;;5067602;28;20560;-82
2023/04/11 05:48:13;;;;;;;9.60;3.47;;;9.30;99.90;;;;;;5063075;28;20048;-81
2023/04/11 05:50:39;;;;;;;9.60;2.72;;;9.30;99.90;;;;;;5066164;28;20034;-80
2023/04/11 05:53:05;;;;;;;14.05;2.63;;;9.30;99.90;;;;;;5065604;28;20033;-81
2023/04/11 05:55:31;;;;;;;6.80;2.08;;;9.30;99.90;;;;;;5059703;28;20025;-81
2023/04/11 05:57:58;;;;;;;9.20;1.90;;;9.30;99.90;;;;;;5067364;28;20024;-84
2023/04/11 06:00:25;;;;;;;9.40;2.08;;;9.30;99.90;;;;;;5059971;28;20409;-82
2023/04/11 06:02:51;;;;;;;11.02;2.03;;;9.30;99.90;;;;;;5067032;28;20086;-81
2023/04/11 06:05:19;;;;;;;9.18;2.70;;;9.30;99.90;;;;;;5062262;28;20037;-80
2023/04/11 06:07:45;;;;;;;18.05;2.75;;;9.20;99.90;;;;;;5057051;28;20025;-84
2023/04/11 06:10:11;;;;;;;22.88;2.80;;;9.30;99.90;;;;;;5060999;28;20017;-85
2023/04/11 06:12:36;;;;;;;13.95;2.58;;;9.30;99.90;;;;;;5064368;28;20027;-82
2023/04/11 06:15:02;;;;;;;10.43;2.33;;;9.30;99.90;;;;;;5065039;28;20421;-83
2023/04/11 06:17:28;;;;;;;10.23;2.38;;;9.40;99.90;;;;;;5059788;28;20025;-79
2023/04/11 06:19:54;;;;;;;7.95;3.35;;;9.40;99.90;;;;;;5068787;28;20110;-86
2023/04/11 06:22:19;;;;;;;11.68;2.85;;;9.30;99.90;;;;;;5058960;28;20028;-80
2023/04/11 06:24:45;;;;;;;15.40;3.25;;;9.40;99.90;;;;;;5058444;28;20028;-84
2023/04/11 06:27:11;;;;;;;11.57;2.97;;;9.40;99.90;;;;;;5053955;28;20036;-82
2023/04/11 06:29:40;;;;;;;15.00;3.25;;;9.40;99.90;;;;;;5062194;28;20484;-83
2023/04/11 06:32:07;;;;;;;13.50;3.10;;;9.40;99.90;;;;;;5059065;28;20063;-82
2023/04/11 06:34:33;;;;;;;8.95;4.05;;;9.40;99.90;;;;;;5058849;28;20488;-81
2023/04/11 06:36:58;;;;;;;17.45;2.90;;;9.40;99.90;;;;;;5060920;28;20393;-80
2023/04/11 06:39:24;;;;;;;17.08;3.92;;;9.40;99.90;;;;;;5053094;28;20032;-82
2023/04/11 06:41:50;;;;;;;7.50;2.65;;;9.50;99.90;;;;;;5056746;28;20463;-80
2023/04/11 06:44:15;;;;;;;9.38;2.80;;;9.40;99.90;;;;;;5054526;28;20152;-80
2023/04/11 06:46:41;;;;;;;6.35;2.08;;;9.50;99.90;;;;;;5066968;28;20090;-80
2023/04/11 06:49:07;;;;;;;8.05;1.90;;;9.50;99.90;;;;;;5056991;28;20565;-81
2023/04/11 06:51:34;;;;;;;17.08;6.43;;;9.40;99.90;;;;;;5053827;28;20082;-83
2023/04/11 06:54:00;;;;;;;17.48;4.97;;;9.30;99.90;;;;;;5059230;28;20054;-82
2023/04/11 06:56:25;;;;;;;16.05;6.38;;;9.10;99.90;;;;;;5056750;28;20031;-82
2023/04/11 06:58:51;;;;;;;12.90;3.58;;;9.00;99.90;;;;;;5056441;28;20847;-81
2023/04/11 07:01:19;;;;;;;9.63;2.90;;;8.90;99.90;;;;;;5055769;28;20055;-81
2023/04/11 07:03:48;;;;;;;13.73;3.28;;;8.80;99.90;;;;;;5056298;28;20099;-82
2023/04/11 07:06:15;;;;;;;10.40;2.70;;;8.80;99.90;;;;;;5052718;28;20041;-82
2023/04/11 07:08:40;;;;;;;4.53;1.65;;;8.80;99.90;;;;;;5053581;28;20033;-81
2023/04/11 07:11:06;;;;;;;7.03;1.95;;;8.80;99.90;;;;;;5055226;28;20040;-81
2023/04/11 07:13:32;;;;;;;18.58;3.47;;;8.80;99.90;;;;;;5056437;28;20382;-82
2023/04/11 07:15:58;;;;;;;17.80;4.20;;;8.80;99.90;;;;;;5048698;28;20036;-82
2023/04/11 07:18:24;;;;;;;18.00;3.47;;;8.90;99.90;;;;;;5056264;28;20111;-82
2023/04/11 07:20:51;;;;;;;13.10;3.80;;;8.90;99.90;;;;;;5052623;28;20024;-83
2023/04/11 07:23:17;;;;;;;22.67;3.70;;;9.00;99.90;;;;;;5058946;28;20012;-81
2023/04/11 07:25:43;;;;;;;11.40;3.90;;;9.20;99.90;;;;;;5058671;28;20039;-83
2023/04/11 07:28:12;;;;;;;15.10;3.38;;;9.40;99.90;;;;;;5063774;28;20028;-83
2023/04/11 07:30:38;;;;;;;21.63;5.30;;;9.50;99.90;;;;;;5055491;28;20029;-81
2023/04/11 07:33:03;;;;;;;23.27;4.40;;;9.60;99.90;;;;;;5045155;28;20032;-82
2023/04/11 07:35:30;;;;;;;13.23;3.67;;;9.80;99.90;;;;;;5057023;28;20071;-82
2023/04/11 07:37:57;;;;;;;17.92;3.40;;;9.90;99.90;;;;;;5051819;28;20021;-85
2023/04/11 07:40:23;;;;;;;12.00;3.17;;;9.90;99.90;;;;;;5051116;28;20060;-83
2023/04/11 07:42:48;;;;;;;18.98;3.95;;;9.90;99.90;;;;;;5061763;28;20568;-81
2023/04/11 07:45:14;;;;;;;16.33;3.97;;;10.00;99.90;;;;;;5057590;28;20028;-84
2023/04/11 07:47:40;;;;;;;14.45;3.58;;;10.00;99.90;;;;;;5062239;28;20024;-84
2023/04/11 07:50:06;;;;;;;14.05;3.85;;;10.00;99.90;;;;;;5053752;28;20384;-82
2023/04/11 07:52:34;;;;;;;19.73;3.92;;;10.10;99.90;;;;;;5058929;28;20116;-83
2023/04/11 07:55:00;;;;;;;18.55;3.28;;;10.20;99.90;;;;;;5061778;28;20053;-84
2023/04/11 07:57:26;;;;;;;30.63;4.80;;;10.20;99.90;;;;;;5063291;28;20020;-82
2023/04/11 07:59:51;;;;;;;17.55;3.65;;;10.30;99.90;;;;;;5058448;28;20080;-82
2023/04/11 08:02:17;;;;;;;15.43;3.70;;;10.40;99.90;;;;;;5062339;28;20028;-79
2023/04/11 08:04:42;;;;;;;12.75;2.85;;;10.30;99.90;;;;;;5054661;28;20040;-82
2023/04/11 08:07:08;;;;;;;11.23;3.63;;;10.00;99.90;;;;;;5056261;28;20039;-84
2023/04/11 08:09:33;;;;;;;11.10;2.53;;;9.60;99.90;;;;;;5055165;28;20027;-85
2023/04/11 08:12:00;;;;;;;4.70;2.25;;;9.30;99.90;;;;;;5055678;28;20021;-86
2023/04/11 08:14:26;;;;;;;10.55;2.88;;;9.00;99.90;;;;;;5062502;28;20560;-86
2023/04/11 08:16:52;;;;;;;13.23;3.15;;;8.80;99.90;;;;;;5054765;28;20024;-86
2023/04/11 08:19:17;;;;;;;6.90;2.78;;;8.70;99.90;;;;;;5062796;28;20036;-86
2023/04/11 08:21:43;;;;;;;10.43;3.05;;;8.70;99.90;;;;;;5059823;28;20025;-84
2023/04/11 08:24:09;;;;;;;13.80;3.72;;;8.70;99.90;;;;;;5063096;28;20103;-85
2023/04/11 08:26:34;;;;;;;14.27;3.45;;;8.90;99.90;;;;;;5052463;28;20500;-83
2023/04/11 08:29:02;;;;;;;16.20;3.65;;;9.00;99.90;;;;;;5061485;28;20078;-86
2023/04/11 08:31:28;;;;;;;11.98;3.45;;;9.20;99.90;;;;;;5062969;28;20428;-84
2023/04/11 08:33:54;;;;;;;17.40;4.55;;;9.30;99.90;;;;;;5063938;28;20374;-83
2023/04/11 08:36:20;;;;;;;9.35;2.78;;;9.30;99.90;;;;;;5058178;28;20028;-84
2023/04/11 08:38:45;;;;;;;6.57;2.28;;;9.30;99.90;;;;;;5064933;28;20035;-86
2023/04/11 08:41:11;;;;;;;11.07;2.67;;;9.30;99.90;;;;;;5062866;28;20515;-83
2023/04/11 08:43:39;;;;;;;10.18;2.90;;;9.20;99.90;;;;;;5063874;28;20036;-84
2023/04/11 08:46:08;;;;;;;8.25;1.90;;;9.20;99.90;;;;;;5063215;28;20036;-82
2023/04/11 08:48:34;;;;;;;7.88;2.00;;;9.10;99.90;;;;;;5057025;28;20024;-86
2023/04/11 08:51:00;;;;;;;9.90;2.30;;;8.80;99.90;;;;;;5062986;28;20036;-85
2023/04/11 08:53:26;;;;;;;2.55;1.80;;;8.70;99.90;;;;;;5064238;28;20296;-84
2023/04/11 08:55:54;;;;;;;6.65;1.85;;;8.60;99.90;;;;;;5064493;28;20489;-85
2023/04/11 08:58:20;;;;;;;4.22;2.28;;;8.50;99.90;;;;;;5062510;28;20033;-86
2023/04/11 09:00:45;;;;;;;8.98;2.47;;;8.40;99.90;;;;;;5064797;28;20192;-88
2023/04/11 09:03:15;;;;;;;5.97;1.98;;;8.30;99.90;;;;;;5052871;28;20044;-85
2023/04/11 09:05:43;;;;;;;11.73;2.92;;;8.30;99.90;;;;;;5054329;28;20056;-85
2023/04/11 09:08:14;;;;;;;11.30;2.83;;;8.30;99.90;;;;;;5049550;28;20302;-86
2023/04/11 09:10:42;;;;;;;8.77;3.13;;;8.30;99.90;;;;;;5056238;28;20024;-84
2023/04/11 09:13:21;;;;;;;9.88;3.65;;;8.30;99.90;;;;;;5064457;28;20043;-85
2023/04/11 09:16:02;;;;;;;13.40;3.55;;;8.20;99.90;;;;;;5058181;28;20460;-86
2023/04/11 09:18:35;;;;;;;5.40;2.85;;;8.30;99.90;;;;;;5063070;28;20016;-85
2023/04/11 09:21:07;;;;;;;10.05;3.00;;;8.40;99.90;;;;;;5062094;28;20251;-83
2023/04/11 09:23:33;;;;;;;5.88;2.58;;;8.60;99.90;;;;;;5057880;28;20040;-85
2023/04/11 09:25:59;;;;;;;8.10;2.00;;;8.70;99.90;;;;;;5055320;28;20041;-86
2023/04/11 09:28:26;;;;;;;1.85;1.40;;;8.80;99.90;;;;;;5064405;28;20078;-84
2023/04/11 09:30:54;;;;;;;2.97;1.20;;;8.90;99.90;;;;;;5063390;28;20032;-82
2023/04/11 09:33:21;;;;;;;1.70;1.10;;;8.90;99.90;;;;;;5060407;28;20082;-86
2023/04/11 09:35:52;;;;;;;1.23;0.90;;;8.80;99.90;;;;;;5054819;28;20036;-81
2023/04/11 09:38:33;;;;;;;2.42;0.90;;;8.90;99.90;;;;;;5054187;28;20020;-85
2023/04/11 09:41:03;;;;;;;1.75;1.33;;;8.80;99.90;;;;;;5064174;28;20048;-85
2023/04/11 09:43:51;;;;;;;7.47;1.80;;;8.80;99.90;;;;;;5059138;28;20405;-85
2023/04/11 09:46:19;;;;;;;3.70;0.98;;;8.80;99.90;;;;;;5055873;28;20044;-83
2023/04/11 09:48:47;;;;;;;9.48;1.70;;;8.80;99.90;;;;;;5057190;28;20124;-87
2023/04/11 09:51:14;;;;;;;5.00;1.00;;;8.80;99.90;;;;;;5055681;28;20048;-84
2023/04/11 09:53:40;;;;;;;3.40;1.45;;;8.90;99.90;;;;;;5062009;28;20448;-85
2023/04/11 09:56:07;;;;;;;1.85;1.13;;;9.00;99.90;;;;;;5055180;28;20020;-77
2023/04/11 09:58:35;;;;;;;4.45;1.73;;;9.10;99.90;;;;;;5059168;28;20059;-84
2023/04/11 10:01:02;;;;;;;3.83;1.17;;;9.20;99.90;;;;;;5064472;28;20032;-86
2023/04/11 10:03:33;;;;;;;5.53;1.52;;;9.20;99.90;;;;;;5059280;28;20025;-84
2023/04/11 10:06:02;;;;;;;9.02;1.40;;;9.20;99.90;;;;;;5062419;28;20046;-86
2023/04/11 10:08:32;;;;;;;6.10;1.65;;;9.20;99.90;;;;;;5066549;28;20021;-85
2023/04/11 10:10:59;;;;;;;10.43;1.70;;;9.20;99.90;;;;;;5063662;28;20037;-85
2023/04/11 10:13:39;;;;;;;10.15;1.90;;;9.30;99.90;;;;;;5067743;28;20025;-87
2023/04/11 10:16:10;;;;;;;9.02;1.63;;;9.30;99.90;;;;;;5059688;28;20058;-81
2023/04/11 10:18:36;;;;;;;5.32;1.95;;;9.30;99.90;;;;;;5059283;28;20479;-84
2023/04/11 10:21:03;;;;;;;7.40;1.58;;;9.30;99.90;;;;;;5066957;28;20515;-86
2023/04/11 10:23:28;;;;;;;9.02;1.60;;;9.40;99.90;;;;;;5063471;28;20028;-82
2023/04/11 10:25:59;;;;;;;4.18;1.25;;;9.50;99.90;;;;;;5057675;28;20033;-87
2023/04/11 10:28:31;;;;;;;6.57;1.70;;;9.60;99.90;;;;;;5068097;28;20035;-84
2023/04/11 10:31:12;;;;;;;6.05;1.80;;;9.70;99.90;;;;;;5065799;28;20077;-79
2023/04/11 10:33:59;;;;;;;4.68;1.17;;;9.90;99.90;;;;;;5066193;28;20448;-86
2023/04/11 10:36:25;;;;;;;18.35;2.30;;;10.00;99.90;;;;;;5058341;28;20028;-82
2023/04/11 10:38:50;;;;;;;8.13;1.58;;;10.40;99.90;;;;;;5055639;28;20480;-85
2023/04/11 10:41:25;;;;;;;10.05;2.25;;;10.50;99.90;;;;;;5066062;28;20139;-81
2023/04/11 10:43:51;;;;;;;5.03;2.53;;;10.70;99.90;;;;;;5066195;28;20035;-84
2023/04/11 10:46:22;;;;;;;5.38;1.60;;;10.90;99.90;;;;;;5063363;28;20494;-84
2023/04/11 10:49:02;;;;;;;9.82;1.77;;;11.00;99.90;;;;;;5064264;28;20123;-80
2023/04/11 10:51:30;;;;;;;9.63;2.10;;;11.00;99.90;;;;;;5061149;28;20036;-87
2023/04/11 10:53:58;;;;;;;10.45;2.20;;;11.10;99.90;;;;;;5065355;28;20029;-82
2023/04/11 10:56:42;;;;;;;8.65;1.60;;;11.20;99.90;;;;;;5067086;28;20107;-85
2023/04/11 10:59:30;;;;;;;8.65;3.05;;;11.30;99.90;;;;;;5053189;28;20455;-79
2023/04/11 11:02:01;;;;;;;7.93;2.38;;;11.30;99.90;;;;;;5066718;28;20553;-87
2023/04/11 11:04:31;;;;;;;4.82;1.75;;;11.20;99.90;;;;;;5060023;28;20017;-83
2023/04/11 11:07:02;;;;;;;11.13;2.17;;;11.00;99.90;;;;;;5067576;28;20412;-85
2023/04/11 11:09:28;;;;;;;7.28;2.03;;;11.00;99.90;;;;;;5063541;28;20477;-85
2023/04/11 11:12:15;;;;;;;20.02;3.08;;;10.90;99.90;;;;;;5062095;28;20028;-80
2023/04/11 11:14:42;;;;;;;9.13;2.03;;;10.70;99.90;;;;;;5051355;28;20032;-84
2023/04/11 11:17:11;;;;;;;9.15;2.20;;;10.60;99.90;;;;;;5064420;28;20074;-84
2023/04/11 11:19:41;;;;;;;8.02;2.58;;;10.40;99.90;;;;;;5056361;28;20025;-86
2023/04/11 11:22:17;;;;;;;6.28;1.92;;;10.40;99.90;;;;;;5064396;28;20465;-88
2023/04/11 11:24:45;;;;;;;9.80;2.17;;;10.30;99.90;;;;;;5046260;28;20446;-83
2023/04/11 11:27:22;;;;;;;10.65;2.15;;;10.40;99.90;;;;;;5060695;28;20508;-83
2023/04/11 11:29:49;;;;;;;6.93;2.38;;;10.70;99.90;;;;;;5066065;28;20032;-85
2023/04/11 11:32:27;;;;;;;14.68;3.20;;;10.90;99.90;;;;;;5066612;28;20445;-78
2023/04/11 11:34:53;;;;;;;7.97;2.25;;;11.20;99.90;;;;;;5064909;28;20040;-82
2023/04/11 11:37:19;;;;;;;5.45;2.60;;;11.10;99.90;;;;;;5058266;28;20031;-87
2023/04/11 11:39:45;;;;;;;3.80;1.45;;;10.80;99.90;;;;;;5065964;28;20032;-80
2023/04/11 11:42:13;;;;;;;10.55;1.73;;;10.60;99.90;;;;;;5065046;28;20028;-85
2023/04/11 11:44:38;;;;;;;8.65;1.33;;;10.30;99.90;;;;;;5058193;28;20024;-86
2023/04/11 11:47:09;;;;;;;3.92;1.48;;;10.00;99.90;;;;;;5060609;28;20032;-85
2023/04/11 11:49:51;;;;;;;8.32;1.70;;;9.90;99.90;;;;;;5065475;28;20036;-85
2023/04/11 11:52:52;;;;;;;4.28;1.40;;;9.60;99.90;;;;;;5065742;28;20453;-81
2023/04/11 11:55:18;;;;;;;6.78;1.60;;;9.50;99.90;;;;;;5044131;28;20634;-86
2023/04/11 11:57:48;;;;;;;7.68;1.88;;;9.40;99.90;;;;;;5056848;28;20092;-84
2023/04/11 12:00:14;;;;;;;5.97;1.83;;;9.40;99.90;;;;;;5060546;28;20025;-84
2023/04/11 12:02:43;;;;;;;8.93;2.10;;;9.40;99.90;;;;;;5064668;28;20040;-81
2023/04/11 12:05:12;;;;;;;6.40;1.77;;;9.70;99.90;;;;;;5060475;28;20070;-88
2023/04/11 12:07:38;;;;;;;10.48;2.40;;;10.00;99.90;;;;;;5059473;28;20035;-82
2023/04/11 12:10:12;;;;;;;12.25;2.17;;;10.30;99.90;;;;;;5062346;28;20124;-87
2023/04/11 12:12:42;;;;;;;4.60;1.70;;;10.70;99.90;;;;;;5066356;28;20032;-83
2023/04/11 12:15:16;;;;;;;10.85;2.65;;;11.00;99.90;;;;;;5063456;28;20043;-90
2023/04/11 12:17:42;;;;;;;8.48;1.75;;;11.20;99.90;;;;;;5065218;28;20477;-81
2023/04/11 12:20:09;;;;;;;13.48;2.10;;;11.50;99.90;;;;;;5057952;28;20024;-84
2023/04/11 12:22:38;;;;;;;7.22;1.83;;;11.70;99.90;;;;;;5052915;28;20020;-84
2023/04/11 12:25:12;;;;;;;14.15;1.90;;;11.90;99.90;;;;;;5057804;28;20115;-86
2023/04/11 12:27:39;;;;;;;6.03;1.65;;;12.00;99.90;;;;;;5065676;28;20020;-80
2023/04/11 12:30:05;;;;;;;8.52;1.75;;;12.10;99.90;;;;;;5063099;28;20025;-83
2023/04/11 12:32:32;;;;;;;11.25;1.83;;;12.40;99.90;;;;;;5064155;28;20040;-81
2023/04/11 12:34:58;;;;;;;8.77;1.77;;;12.50;99.90;;;;;;5063014;28;20396;-83
2023/04/11 12:37:24;;;;;;;11.07;1.83;;;12.70;99.90;;;;;;5059565;28;20115;-85
2023/04/11 12:39:50;;;;;;;9.18;1.92;;;12.60;99.90;;;;;;5057664;28;20128;-85
2023/04/11 12:42:16;;;;;;;11.80;2.35;;;12.50;99.90;;;;;;5060047;28;20017;-87
2023/04/11 12:44:42;;;;;;;4.90;1.38;;;12.50;99.90;;;;;;5060166;28;20393;-86
2023/04/11 12:47:07;;;;;;;8.35;1.58;;;12.70;99.90;;;;;;5057863;28;20107;-85
2023/04/11 12:49:33;;;;;;;7.63;1.70;;;13.00;99.90;;;;;;5059887;28;20150;-85